createdAt,value
2017-01-28T00:00:16.527Z,1012.73
2017-01-28T00:00:58.270Z,1012.71
2017-01-28T00:03:13.713Z,1012.69
2017-01-28T00:03:55.218Z,1012.73
2017-01-28T00:06:26.317Z,1012.72
2017-01-28T00:07:08.028Z,1012.72
2017-01-28T00:07:49.774Z,1012.73
2017-01-28T00:10:10.350Z,1012.71
2017-01-28T00:10:52.025Z,1012.67
2017-01-28T00:11:33.682Z,1012.7
2017-01-28T00:12:15.419Z,1012.64
2017-01-28T00:12:57.128Z,1012.67
2017-01-28T00:13:38.846Z,1012.67
2017-01-28T00:14:20.477Z,1012.65
2017-01-28T00:15:02.227Z,1012.61
2017-01-28T00:15:43.935Z,1012.61
2017-01-28T00:16:25.776Z,1012.59
2017-01-28T00:17:07.235Z,1012.59
2017-01-28T00:19:38.404Z,1012.54
2017-01-28T00:20:20.129Z,1012.55
2017-01-28T00:21:01.860Z,1012.54
2017-01-28T00:21:43.565Z,1012.54
2017-01-28T00:22:25.291Z,1012.59
2017-01-28T00:23:07.050Z,1012.52
2017-01-28T00:23:48.731Z,1012.56
2017-01-28T00:24:30.519Z,1012.54
2017-01-28T00:25:12.101Z,1012.54
2017-01-28T00:25:53.783Z,1012.52
2017-01-28T00:26:35.423Z,1012.53
2017-01-28T00:27:17.214Z,1012.54
2017-01-28T00:27:58.979Z,1012.56
2017-01-28T00:28:40.742Z,1012.55
2017-01-28T00:29:22.534Z,1012.53
2017-01-28T00:30:04.461Z,1012.52
2017-01-28T00:30:45.860Z,1012.52
2017-01-28T00:31:27.563Z,1012.54
2017-01-28T00:32:09.323Z,1012.55
2017-01-28T00:34:30.033Z,1012.54
2017-01-28T00:36:45.522Z,1012.5
2017-01-28T00:37:27.283Z,1012.54
2017-01-28T00:38:09.038Z,1012.49
2017-01-28T00:38:50.724Z,1012.51
2017-01-28T00:39:32.416Z,1012.45
2017-01-28T00:41:47.827Z,1012.53
2017-01-28T00:42:29.497Z,1012.55
2017-01-28T00:44:44.829Z,1012.58
2017-01-28T00:45:26.563Z,1012.54
2017-01-28T00:46:08.320Z,1012.56
2017-01-28T00:46:50.066Z,1012.52
2017-01-28T00:49:10.696Z,1012.52
2017-01-28T00:49:52.494Z,1012.53
2017-01-28T00:50:34.023Z,1012.47
2017-01-28T00:52:34.035Z,1012.5
2017-01-28T00:53:15.745Z,1012.51
2017-01-28T00:53:57.433Z,1012.52
2017-01-28T00:54:38.967Z,1012.48
2017-01-28T00:55:20.677Z,1012.47
2017-01-28T00:56:02.305Z,1012.49
2017-01-28T00:56:44.046Z,1012.4
2017-01-28T00:57:25.751Z,1012.42
2017-01-28T00:58:07.437Z,1012.42
2017-01-28T00:58:49.299Z,1012.42
2017-01-28T00:59:31.066Z,1012.41
2017-01-28T01:00:12.464Z,1012.42
2017-01-28T01:00:53.882Z,1012.39
2017-01-28T01:01:35.372Z,1012.33
2017-01-28T01:02:16.957Z,1012.37
2017-01-28T01:02:58.611Z,1012.34
2017-01-28T01:03:40.277Z,1012.33
2017-01-28T01:04:22.044Z,1012.3
2017-01-28T01:05:03.641Z,1012.29
2017-01-28T01:05:45.260Z,1012.27
2017-01-28T01:06:26.968Z,1012.27
2017-01-28T01:08:47.674Z,1012.22
2017-01-28T01:09:29.413Z,1012.21
2017-01-28T01:10:11.012Z,1012.17
2017-01-28T01:12:42.004Z,1012.08
2017-01-28T01:13:23.714Z,1012.12
2017-01-28T01:14:05.482Z,1012.1
2017-01-28T01:14:46.948Z,1012.08
2017-01-28T01:15:28.687Z,1012.09
2017-01-28T01:16:10.455Z,1012.11
2017-01-28T01:16:52.077Z,1012.13
2017-01-28T01:17:33.800Z,1012.08
2017-01-28T01:19:49.195Z,1012.07
2017-01-28T01:20:30.952Z,1012.13
2017-01-28T01:21:12.762Z,1012.14
2017-01-28T01:21:54.416Z,1012.11
2017-01-28T01:22:36.248Z,1012.13
2017-01-28T01:23:17.995Z,1012.13
2017-01-28T01:23:59.736Z,1012.12
2017-01-28T01:24:41.517Z,1012.11
2017-01-28T01:25:23.239Z,1012.17
2017-01-28T01:26:04.742Z,1012.11
2017-01-28T01:26:46.518Z,1012.12
2017-01-28T01:27:28.266Z,1012.17
2017-01-28T01:28:10.054Z,1012.15
2017-01-28T01:28:51.809Z,1012.16
2017-01-28T01:29:33.557Z,1012.14
2017-01-28T01:32:05.539Z,1012.12
2017-01-28T01:35:39.276Z,1012.18
2017-01-28T01:36:20.727Z,1012.15
2017-01-28T01:37:02.596Z,1012.19
2017-01-28T01:37:44.279Z,1012.14
2017-01-28T01:38:25.975Z,1012.1
2017-01-28T01:40:41.335Z,1012.11
2017-01-28T01:41:23.050Z,1012.09
2017-01-28T01:42:04.367Z,1012.08
2017-01-28T01:44:35.381Z,1012.07
2017-01-28T01:46:50.661Z,1012.11
2017-01-28T01:49:06.086Z,1012.14
2017-01-28T01:49:47.855Z,1012.1
2017-01-28T01:50:29.494Z,1012.12
2017-01-28T01:51:11.281Z,1012.12
2017-01-28T01:51:52.862Z,1012.1
2017-01-28T01:52:34.626Z,1012.1
2017-01-28T01:53:16.472Z,1012.11
2017-01-28T01:53:57.991Z,1012.1
2017-01-28T01:54:39.693Z,1012.12
2017-01-28T01:55:21.272Z,1012.12
2017-01-28T01:56:03.093Z,1012.08
2017-01-28T01:56:44.827Z,1012.04
2017-01-28T01:57:26.553Z,1012.07
2017-01-28T01:58:08.304Z,1012.06
2017-01-28T02:00:02.355Z,1012.06
2017-01-28T02:00:42.889Z,1012.05
2017-01-28T02:01:23.421Z,1012.06
2017-01-28T02:02:03.929Z,1012.06
2017-01-28T02:02:44.467Z,1012.06
2017-01-28T02:03:24.995Z,1012.07
2017-01-28T02:04:05.527Z,1012.04
2017-01-28T02:04:46.071Z,1012.04
2017-01-28T02:05:26.597Z,1012.03
2017-01-28T02:06:07.128Z,1012.03
2017-01-28T02:06:47.736Z,1012.01
2017-01-28T02:07:28.282Z,1012.04
2017-01-28T02:08:08.825Z,1012.03
2017-01-28T02:08:49.352Z,1012.07
2017-01-28T02:09:29.878Z,1012.04
2017-01-28T02:10:10.401Z,1012.06
2017-01-28T02:10:50.939Z,1012.05
2017-01-28T02:11:31.468Z,1012.04
2017-01-28T02:12:11.993Z,1012.01
2017-01-28T02:12:52.517Z,1012.07
2017-01-28T02:13:33.053Z,1012.02
2017-01-28T02:14:13.582Z,1012.05
2017-01-28T02:14:54.113Z,1012.05
2017-01-28T02:15:34.636Z,1012.07
2017-01-28T02:16:15.170Z,1012
2017-01-28T02:16:55.701Z,1012.03
2017-01-28T02:17:36.234Z,1012.02
2017-01-28T02:18:16.773Z,1012.02
2017-01-28T02:18:57.311Z,1012
2017-01-28T02:19:37.839Z,1012.03
2017-01-28T02:20:18.393Z,1012.04
2017-01-28T02:20:58.924Z,1012
2017-01-28T02:21:39.456Z,1012.01
2017-01-28T02:22:19.987Z,1012.04
2017-01-28T02:23:00.522Z,1011.98
2017-01-28T02:23:41.053Z,1012.03
2017-01-28T02:24:21.573Z,1011.95
2017-01-28T02:25:02.109Z,1011.98
2017-01-28T02:25:42.638Z,1012.01
2017-01-28T02:26:23.170Z,1011.99
2017-01-28T02:27:03.688Z,1012
2017-01-28T02:27:44.232Z,1012.01
2017-01-28T02:28:24.767Z,1012.02
2017-01-28T02:29:05.304Z,1011.97
2017-01-28T02:29:45.836Z,1012.05
2017-01-28T02:30:26.367Z,1012
2017-01-28T02:31:06.896Z,1011.98
2017-01-28T02:31:47.421Z,1012.06
2017-01-28T02:32:27.956Z,1011.99
2017-01-28T02:33:08.492Z,1012.03
2017-01-28T02:33:49.025Z,1012.01
2017-01-28T02:34:29.551Z,1011.98
2017-01-28T02:35:10.090Z,1011.99
2017-01-28T02:35:50.615Z,1011.98
2017-01-28T02:36:31.146Z,1012
2017-01-28T02:37:11.679Z,1011.99
2017-01-28T02:37:52.208Z,1011.96
2017-01-28T02:38:32.742Z,1012
2017-01-28T02:39:13.273Z,1011.96
2017-01-28T02:39:53.814Z,1011.97
2017-01-28T02:40:34.346Z,1011.99
2017-01-28T02:41:14.890Z,1012
2017-01-28T02:41:55.427Z,1011.97
2017-01-28T02:42:35.957Z,1012.03
2017-01-28T02:43:16.488Z,1012.04
2017-01-28T02:43:57.026Z,1012.01
2017-01-28T02:44:37.561Z,1012.03
2017-01-28T02:45:18.104Z,1012.03
2017-01-28T02:45:58.636Z,1012.07
2017-01-28T02:46:39.162Z,1012.05
2017-01-28T02:47:19.696Z,1012
2017-01-28T02:48:00.229Z,1012.04
2017-01-28T02:48:40.768Z,1012.04
2017-01-28T02:49:21.305Z,1012.05
2017-01-28T02:50:01.816Z,1012.03
2017-01-28T02:50:42.343Z,1012.06
2017-01-28T02:51:22.877Z,1012.08
2017-01-28T02:52:03.409Z,1012.12
2017-01-28T02:52:43.935Z,1012.09
2017-01-28T02:53:24.463Z,1012.05
2017-01-28T02:54:04.997Z,1012.07
2017-01-28T02:54:45.521Z,1012.06
2017-01-28T02:55:26.050Z,1012.07
2017-01-28T02:56:06.583Z,1012.09
2017-01-28T02:56:47.127Z,1012.1
2017-01-28T02:57:27.651Z,1012.13
2017-01-28T02:58:08.168Z,1012.11
2017-01-28T02:58:48.701Z,1012.15
2017-01-28T02:59:29.237Z,1012.14
2017-01-28T03:00:09.767Z,1012.13
2017-01-28T03:00:50.300Z,1012.12
2017-01-28T03:01:30.835Z,1012.14
2017-01-28T03:02:11.370Z,1012.12
2017-01-28T03:02:51.897Z,1012.09
2017-01-28T03:03:32.427Z,1012.11
2017-01-28T03:04:12.965Z,1012.14
2017-01-28T03:04:53.498Z,1012.16
2017-01-28T03:05:34.033Z,1012.13
2017-01-28T03:06:14.563Z,1012.12
2017-01-28T03:06:55.096Z,1012.12
2017-01-28T03:07:35.626Z,1012.12
2017-01-28T03:08:16.161Z,1012.18
2017-01-28T03:08:56.712Z,1012.15
2017-01-28T03:09:37.238Z,1012.12
2017-01-28T03:10:17.769Z,1012.13
2017-01-28T03:10:58.306Z,1012.17
2017-01-28T03:11:38.829Z,1012.13
2017-01-28T03:12:19.365Z,1012.15
2017-01-28T03:12:59.893Z,1012.15
2017-01-28T03:13:40.425Z,1012.15
2017-01-28T03:14:20.962Z,1012.16
2017-01-28T03:15:01.498Z,1012.12
2017-01-28T03:15:42.027Z,1012.16
2017-01-28T03:16:22.562Z,1012.19
2017-01-28T03:17:03.095Z,1012.15
2017-01-28T03:17:43.624Z,1012.13
2017-01-28T03:18:24.153Z,1012.14
2017-01-28T03:19:04.679Z,1012.08
2017-01-28T03:19:45.213Z,1012.12
2017-01-28T03:20:25.741Z,1012.18
2017-01-28T03:21:06.271Z,1012.12
2017-01-28T03:21:46.782Z,1012.08
2017-01-28T03:22:27.325Z,1012.12
2017-01-28T03:23:07.845Z,1012.09
2017-01-28T03:23:48.378Z,1012.11
2017-01-28T03:24:28.912Z,1012.1
2017-01-28T03:25:09.457Z,1012.1
2017-01-28T03:25:49.966Z,1012.09
2017-01-28T03:26:30.526Z,1012.07
2017-01-28T03:27:11.031Z,1012.09
2017-01-28T03:27:51.562Z,1012.12
2017-01-28T03:28:32.085Z,1012.08
2017-01-28T03:29:12.614Z,1012.14
2017-01-28T03:29:53.145Z,1012.11
2017-01-28T03:30:33.680Z,1012.12
2017-01-28T03:31:14.207Z,1012.08
2017-01-28T03:31:54.733Z,1012.15
2017-01-28T03:32:35.260Z,1012.12
2017-01-28T03:33:15.797Z,1012.11
2017-01-28T03:33:56.330Z,1012.08
2017-01-28T03:34:36.864Z,1012.09
2017-01-28T03:35:17.389Z,1012.07
2017-01-28T03:35:57.922Z,1012.07
2017-01-28T03:36:38.449Z,1012.09
2017-01-28T03:37:18.983Z,1012.12
2017-01-28T03:37:59.502Z,1012.09
2017-01-28T03:38:40.025Z,1012.11
2017-01-28T03:39:20.563Z,1012.13
2017-01-28T03:40:01.092Z,1012.12
2017-01-28T03:40:41.619Z,1012.14
2017-01-28T03:41:22.144Z,1012.07
2017-01-28T03:42:02.675Z,1012.23
2017-01-28T03:42:43.207Z,1012.12
2017-01-28T03:43:23.740Z,1012.12
2017-01-28T03:44:04.274Z,1012.1
2017-01-28T03:44:44.798Z,1012.12
2017-01-28T03:45:25.327Z,1012.12
2017-01-28T03:46:05.859Z,1012.14
2017-01-28T03:46:46.393Z,1012.18
2017-01-28T03:47:26.927Z,1012.21
2017-01-28T03:48:07.435Z,1012.16
2017-01-28T03:48:47.992Z,1012.13
2017-01-28T03:49:28.498Z,1012.18
2017-01-28T03:50:09.035Z,1012.2
2017-01-28T03:50:49.549Z,1012.21
2017-01-28T03:51:30.081Z,1012.2
2017-01-28T03:52:10.617Z,1012.17
2017-01-28T03:52:51.151Z,1012.16
2017-01-28T03:53:31.685Z,1012.25
2017-01-28T03:54:12.219Z,1012.16
2017-01-28T03:54:52.746Z,1012.21
2017-01-28T03:55:33.278Z,1012.2
2017-01-28T03:56:13.832Z,1012.17
2017-01-28T03:56:54.342Z,1012.21
2017-01-28T03:57:34.860Z,1012.27
2017-01-28T03:58:15.385Z,1012.31
2017-01-28T03:58:55.916Z,1012.18
2017-01-28T03:59:36.448Z,1012.19
2017-01-28T04:00:16.978Z,1012.21
2017-01-28T04:00:57.502Z,1012.24
2017-01-28T04:01:38.033Z,1012.2
2017-01-28T04:02:18.562Z,1012.28
2017-01-28T04:02:59.089Z,1012.26
2017-01-28T04:03:39.611Z,1012.26
2017-01-28T04:04:20.157Z,1012.26
2017-01-28T04:05:00.711Z,1012.33
2017-01-28T04:05:41.244Z,1012.28
2017-01-28T04:06:21.773Z,1012.36
2017-01-28T04:07:02.306Z,1012.36
2017-01-28T04:07:42.836Z,1012.3
2017-01-28T04:08:23.367Z,1012.31
2017-01-28T04:09:03.890Z,1012.29
2017-01-28T04:09:44.423Z,1012.35
2017-01-28T04:10:24.953Z,1012.32
2017-01-28T04:11:05.485Z,1012.41
2017-01-28T04:11:46.012Z,1012.3
2017-01-28T04:12:26.537Z,1012.33
2017-01-28T04:13:07.077Z,1012.3
2017-01-28T04:13:47.611Z,1012.28
2017-01-28T04:14:28.146Z,1012.38
2017-01-28T04:15:08.683Z,1012.38
2017-01-28T04:15:49.211Z,1012.38
2017-01-28T04:16:29.743Z,1012.37
2017-01-28T04:17:10.294Z,1012.43
2017-01-28T04:17:50.825Z,1012.33
2017-01-28T04:18:31.357Z,1012.34
2017-01-28T04:19:11.893Z,1012.35
2017-01-28T04:19:52.415Z,1012.29
2017-01-28T04:20:32.962Z,1012.25
2017-01-28T04:21:13.475Z,1012.27
2017-01-28T04:21:54.012Z,1012.29
2017-01-28T04:22:34.546Z,1012.21
2017-01-28T04:23:15.069Z,1012.25
2017-01-28T04:23:55.597Z,1012.21
2017-01-28T04:24:36.135Z,1012.28
2017-01-28T04:25:16.671Z,1012.21
2017-01-28T04:25:57.204Z,1012.25
2017-01-28T04:26:37.742Z,1012.19
2017-01-28T04:27:18.271Z,1012.28
2017-01-28T04:27:58.803Z,1012.27
2017-01-28T04:28:39.335Z,1012.29
2017-01-28T04:29:19.870Z,1012.26
2017-01-28T04:30:00.400Z,1012.27
2017-01-28T04:30:40.927Z,1012.28
2017-01-28T04:31:21.467Z,1012.33
2017-01-28T04:32:01.993Z,1012.25
2017-01-28T04:32:42.530Z,1012.29
2017-01-28T04:33:23.114Z,1012.3
2017-01-28T04:34:03.643Z,1012.28
2017-01-28T04:34:44.160Z,1012.29
2017-01-28T04:35:24.697Z,1012.27
2017-01-28T04:36:05.219Z,1012.28
2017-01-28T04:36:45.761Z,1012.26
2017-01-28T04:37:26.281Z,1012.29
2017-01-28T04:38:06.806Z,1012.26
2017-01-28T04:38:47.330Z,1012.26
2017-01-28T04:39:27.867Z,1012.25
2017-01-28T04:40:08.399Z,1012.28
2017-01-28T04:40:48.929Z,1012.24
2017-01-28T04:41:29.457Z,1012.24
2017-01-28T04:42:09.981Z,1012.26
2017-01-28T04:42:50.508Z,1012.31
2017-01-28T04:43:31.039Z,1012.27
2017-01-28T04:44:11.574Z,1012.29
2017-01-28T04:44:52.098Z,1012.25
2017-01-28T04:45:32.629Z,1012.3
2017-01-28T04:46:13.160Z,1012.3
2017-01-28T04:46:53.691Z,1012.34
2017-01-28T04:47:34.227Z,1012.33
2017-01-28T04:48:14.759Z,1012.34
2017-01-28T04:48:55.283Z,1012.3
2017-01-28T04:49:35.815Z,1012.34
2017-01-28T04:50:16.351Z,1012.37
2017-01-28T04:50:56.884Z,1012.36
2017-01-28T04:51:37.422Z,1012.36
2017-01-28T04:52:17.957Z,1012.39
2017-01-28T04:52:58.523Z,1012.38
2017-01-28T04:53:39.060Z,1012.36
2017-01-28T04:54:19.590Z,1012.42
2017-01-28T04:55:00.126Z,1012.42
2017-01-28T04:55:40.656Z,1012.41
2017-01-28T04:56:21.190Z,1012.43
2017-01-28T04:57:01.717Z,1012.4
2017-01-28T04:57:42.243Z,1012.41
2017-01-28T04:58:22.778Z,1012.43
2017-01-28T04:59:03.312Z,1012.37
2017-01-28T04:59:43.855Z,1012.39
2017-01-28T05:00:24.386Z,1012.34
2017-01-28T05:01:04.927Z,1012.39
2017-01-28T05:01:45.468Z,1012.38
2017-01-28T05:02:25.994Z,1012.35
2017-01-28T05:03:06.524Z,1012.34
2017-01-28T05:03:47.054Z,1012.36
2017-01-28T05:04:27.589Z,1012.38
2017-01-28T05:05:08.121Z,1012.36
2017-01-28T05:05:48.647Z,1012.39
2017-01-28T05:06:29.201Z,1012.44
2017-01-28T05:07:09.731Z,1012.4
2017-01-28T05:07:50.264Z,1012.38
2017-01-28T05:08:30.800Z,1012.35
2017-01-28T05:09:11.333Z,1012.4
2017-01-28T05:09:51.869Z,1012.39
2017-01-28T05:10:32.401Z,1012.37
2017-01-28T05:11:12.934Z,1012.37
2017-01-28T05:11:53.472Z,1012.39
2017-01-28T05:12:34.009Z,1012.35
2017-01-28T05:13:14.544Z,1012.33
2017-01-28T05:13:55.080Z,1012.34
2017-01-28T05:14:35.619Z,1012.35
2017-01-28T05:15:16.148Z,1012.31
2017-01-28T05:15:56.682Z,1012.32
2017-01-28T05:16:37.219Z,1012.32
2017-01-28T05:17:17.755Z,1012.26
2017-01-28T05:17:58.289Z,1012.28
2017-01-28T05:18:38.832Z,1012.23
2017-01-28T05:19:19.367Z,1012.16
2017-01-28T05:19:59.900Z,1012.13
2017-01-28T05:20:40.424Z,1012.19
2017-01-28T05:21:20.943Z,1012.14
2017-01-28T05:22:01.484Z,1012.13
2017-01-28T05:22:42.007Z,1012.14
2017-01-28T05:23:22.541Z,1012.11
2017-01-28T05:24:03.067Z,1012.13
2017-01-28T05:24:43.604Z,1012.11
2017-01-28T05:25:24.137Z,1012.12
2017-01-28T05:26:04.661Z,1012.11
2017-01-28T05:26:45.207Z,1012.11
2017-01-28T05:27:25.735Z,1012.17
2017-01-28T05:28:06.269Z,1012.12
2017-01-28T05:28:46.801Z,1012.11
2017-01-28T05:29:27.339Z,1012.1
2017-01-28T05:30:07.873Z,1012.13
2017-01-28T05:30:48.405Z,1012.08
2017-01-28T05:31:28.942Z,1012.09
2017-01-28T05:32:09.481Z,1012.11
2017-01-28T05:32:50.015Z,1012.13
2017-01-28T05:33:30.551Z,1012.13
2017-01-28T05:34:11.089Z,1012.12
2017-01-28T05:34:51.672Z,1012.1
2017-01-28T05:35:32.132Z,1012.11
2017-01-28T05:36:12.668Z,1012.15
2017-01-28T05:36:53.200Z,1012.14
2017-01-28T05:37:33.728Z,1012.12
2017-01-28T05:38:14.260Z,1012.11
2017-01-28T05:38:54.791Z,1012.08
2017-01-28T05:39:35.328Z,1012.14
2017-01-28T05:40:15.855Z,1012.1
2017-01-28T05:40:56.393Z,1012.09
2017-01-28T05:41:36.923Z,1012.07
2017-01-28T05:42:17.453Z,1012.08
2017-01-28T05:42:57.986Z,1012.07
2017-01-28T05:43:38.518Z,1012.03
2017-01-28T05:44:19.049Z,1012.06
2017-01-28T05:44:59.573Z,1012.1
2017-01-28T05:45:40.107Z,1012.08
2017-01-28T05:46:20.634Z,1012.12
2017-01-28T05:47:01.158Z,1012.12
2017-01-28T05:47:41.694Z,1012.14
2017-01-28T05:48:22.219Z,1012.13
2017-01-28T05:49:02.761Z,1012.15
2017-01-28T05:49:43.282Z,1012.13
2017-01-28T05:50:23.812Z,1012.13
2017-01-28T05:51:04.351Z,1012.14
2017-01-28T05:51:44.878Z,1012.08
2017-01-28T05:52:25.410Z,1012.07
2017-01-28T05:53:05.934Z,1012.14
2017-01-28T05:53:46.472Z,1012.13
2017-01-28T05:54:27.007Z,1012.11
2017-01-28T05:55:07.541Z,1012.11
2017-01-28T05:55:48.074Z,1012.17
2017-01-28T05:56:28.612Z,1012.16
2017-01-28T05:57:09.137Z,1012.18
2017-01-28T05:57:49.679Z,1012.16
2017-01-28T05:58:30.207Z,1012.17
2017-01-28T05:59:10.746Z,1012.16
2017-01-28T05:59:51.277Z,1012.17
2017-01-28T06:00:31.814Z,1012.16
2017-01-28T06:01:12.342Z,1012.17
2017-01-28T06:01:52.894Z,1012.2
2017-01-28T06:02:33.428Z,1012.13
2017-01-28T06:03:13.962Z,1012.15
2017-01-28T06:03:54.500Z,1012.13
2017-01-28T06:04:35.036Z,1012.16
2017-01-28T06:05:15.569Z,1012.13
2017-01-28T06:05:56.103Z,1012.15
2017-01-28T06:06:36.633Z,1012.14
2017-01-28T06:07:17.168Z,1012.18
2017-01-28T06:07:57.690Z,1012.12
2017-01-28T06:08:38.224Z,1012.13
2017-01-28T06:09:18.748Z,1012.15
2017-01-28T06:09:59.284Z,1012.15
2017-01-28T06:10:39.818Z,1012.17
2017-01-28T06:11:20.343Z,1012.2
2017-01-28T06:12:00.887Z,1012.19
2017-01-28T06:12:41.421Z,1012.22
2017-01-28T06:13:21.954Z,1012.17
2017-01-28T06:14:02.484Z,1012.2
2017-01-28T06:14:43.015Z,1012.24
2017-01-28T06:15:23.540Z,1012.19
2017-01-28T06:16:04.064Z,1012.13
2017-01-28T06:16:44.593Z,1012.12
2017-01-28T06:17:25.137Z,1012.11
2017-01-28T06:18:05.673Z,1012.09
2017-01-28T06:18:46.210Z,1012.07
2017-01-28T06:19:26.775Z,1012.1
2017-01-28T06:20:07.296Z,1012.03
2017-01-28T06:20:47.828Z,1012.01
2017-01-28T06:21:28.368Z,1012.01
2017-01-28T06:22:08.904Z,1012.04
2017-01-28T06:22:49.532Z,1012.08
2017-01-28T06:23:30.061Z,1012.07
2017-01-28T06:24:10.597Z,1012.04
2017-01-28T06:24:51.137Z,1012.02
2017-01-28T06:25:31.663Z,1012.07
2017-01-28T06:26:12.202Z,1012.05
2017-01-28T06:26:52.733Z,1012.06
2017-01-28T06:27:33.264Z,1012.09
2017-01-28T06:28:13.789Z,1012.09
2017-01-28T06:28:54.305Z,1012.09
2017-01-28T06:29:34.847Z,1012.09
2017-01-28T06:30:15.394Z,1012.04
2017-01-28T06:30:55.908Z,1012.05
2017-01-28T06:31:36.451Z,1012.05
2017-01-28T06:32:16.974Z,1011.99
2017-01-28T06:32:57.505Z,1012
2017-01-28T06:33:38.036Z,1011.98
2017-01-28T06:34:18.564Z,1012
2017-01-28T06:34:59.086Z,1011.98
2017-01-28T06:35:39.616Z,1011.99
2017-01-28T06:36:20.146Z,1011.98
2017-01-28T06:37:00.672Z,1011.99
2017-01-28T06:37:41.207Z,1011.98
2017-01-28T06:38:21.738Z,1012.08
2017-01-28T06:39:02.275Z,1012.04
2017-01-28T06:39:42.809Z,1012
2017-01-28T06:40:23.342Z,1012.07
2017-01-28T06:41:03.866Z,1012.04
2017-01-28T06:41:44.401Z,1012.07
2017-01-28T06:42:24.928Z,1012.02
2017-01-28T06:43:05.461Z,1012.01
2017-01-28T06:43:45.997Z,1011.99
2017-01-28T06:44:26.537Z,1012.02
2017-01-28T06:45:07.059Z,1011.95
2017-01-28T06:45:47.606Z,1012.03
2017-01-28T06:46:28.122Z,1011.98
2017-01-28T06:47:08.658Z,1012.05
2017-01-28T06:47:49.194Z,1012
2017-01-28T06:48:29.726Z,1012.03
2017-01-28T06:49:10.253Z,1012.02
2017-01-28T06:49:50.789Z,1012.08
2017-01-28T06:50:31.326Z,1012.1
2017-01-28T06:51:11.860Z,1012.12
2017-01-28T06:51:52.403Z,1012.1
2017-01-28T06:52:32.926Z,1012.07
2017-01-28T06:53:13.468Z,1012.08
2017-01-28T06:53:54.003Z,1012.07
2017-01-28T06:54:34.529Z,1012.12
2017-01-28T06:55:15.063Z,1012.15
2017-01-28T06:55:55.598Z,1012.11
2017-01-28T06:56:36.123Z,1012.07
2017-01-28T06:57:16.656Z,1012.05
2017-01-28T06:57:57.183Z,1012.08
2017-01-28T06:58:37.708Z,1012.09
2017-01-28T06:59:18.233Z,1012.1
2017-01-28T06:59:58.760Z,1012.07
2017-01-28T07:00:39.286Z,1012.1
2017-01-28T07:01:19.842Z,1012.09
2017-01-28T07:02:00.358Z,1012.11
2017-01-28T07:02:40.916Z,1012.15
2017-01-28T07:03:21.423Z,1012.12
2017-01-28T07:04:01.958Z,1012.09
2017-01-28T07:04:42.484Z,1012.08
2017-01-28T07:05:23.019Z,1012.11
2017-01-28T07:06:03.556Z,1012.09
2017-01-28T07:06:44.078Z,1012.08
2017-01-28T07:07:24.614Z,1012.08
2017-01-28T07:08:05.165Z,1012.05
2017-01-28T07:08:45.677Z,1012.04
2017-01-28T07:09:26.220Z,1012.02
2017-01-28T07:10:06.773Z,1012.06
2017-01-28T07:10:47.291Z,1012.05
2017-01-28T07:11:27.814Z,1012.04
2017-01-28T07:12:08.353Z,1012.04
2017-01-28T07:12:48.888Z,1012.06
2017-01-28T07:13:29.426Z,1012.06
2017-01-28T07:14:09.962Z,1012.05
2017-01-28T07:14:50.476Z,1012.03
2017-01-28T07:15:31.021Z,1012.03
2017-01-28T07:16:11.540Z,1012.07
2017-01-28T07:16:52.076Z,1012.07
2017-01-28T07:17:32.610Z,1012.09
2017-01-28T07:18:13.131Z,1012.1
2017-01-28T07:18:53.673Z,1012.14
2017-01-28T07:19:34.203Z,1012.12
2017-01-28T07:20:14.774Z,1012.13
2017-01-28T07:20:55.281Z,1012.15
2017-01-28T07:21:35.824Z,1012.14
2017-01-28T07:22:16.348Z,1012.16
2017-01-28T07:22:56.889Z,1012.17
2017-01-28T07:23:37.399Z,1012.18
2017-01-28T07:24:17.917Z,1012.17
2017-01-28T07:24:58.441Z,1012.24
2017-01-28T07:25:38.983Z,1012.16
2017-01-28T07:26:19.533Z,1012.2
2017-01-28T07:27:00.045Z,1012.19
2017-01-28T07:27:40.577Z,1012.22
2017-01-28T07:28:21.108Z,1012.25
2017-01-28T07:29:01.643Z,1012.21
2017-01-28T07:29:42.182Z,1012.24
2017-01-28T07:30:22.695Z,1012.24
2017-01-28T07:31:03.229Z,1012.26
2017-01-28T07:31:43.809Z,1012.23
2017-01-28T07:32:24.352Z,1012.23
2017-01-28T07:33:04.848Z,1012.26
2017-01-28T07:33:45.392Z,1012.27
2017-01-28T07:34:25.897Z,1012.25
2017-01-28T07:35:06.414Z,1012.27
2017-01-28T07:35:47.052Z,1012.3
2017-01-28T07:36:27.556Z,1012.28
2017-01-28T07:37:08.088Z,1012.26
2017-01-28T07:37:48.594Z,1012.25
2017-01-28T07:38:29.154Z,1012.26
2017-01-28T07:39:09.688Z,1012.34
2017-01-28T07:39:50.218Z,1012.25
2017-01-28T07:40:30.750Z,1012.28
2017-01-28T07:41:11.289Z,1012.28
2017-01-28T07:41:51.816Z,1012.29
2017-01-28T07:42:32.352Z,1012.32
2017-01-28T07:43:12.891Z,1012.3
2017-01-28T07:43:53.421Z,1012.33
2017-01-28T07:44:33.972Z,1012.35
2017-01-28T07:45:14.514Z,1012.34
2017-01-28T07:45:55.051Z,1012.33
2017-01-28T07:46:35.578Z,1012.31
2017-01-28T07:47:16.107Z,1012.36
2017-01-28T07:47:56.641Z,1012.32
2017-01-28T07:48:37.168Z,1012.35
2017-01-28T07:49:17.692Z,1012.4
2017-01-28T07:49:58.196Z,1012.39
2017-01-28T07:50:38.744Z,1012.45
2017-01-28T07:51:19.258Z,1012.5
2017-01-28T07:51:59.804Z,1012.46
2017-01-28T07:52:40.358Z,1012.49
2017-01-28T07:53:20.888Z,1012.5
2017-01-28T07:54:01.452Z,1012.52
2017-01-28T07:54:41.992Z,1012.52
2017-01-28T07:55:22.546Z,1012.52
2017-01-28T07:56:03.065Z,1012.51
2017-01-28T07:56:43.593Z,1012.51
2017-01-28T07:57:24.166Z,1012.5
2017-01-28T07:58:04.673Z,1012.51
2017-01-28T07:58:45.206Z,1012.48
2017-01-28T07:59:25.741Z,1012.5
2017-01-28T08:00:06.266Z,1012.5
2017-01-28T08:00:46.814Z,1012.47
2017-01-28T08:01:27.336Z,1012.48
2017-01-28T08:02:07.917Z,1012.47
2017-01-28T08:02:48.433Z,1012.48
2017-01-28T08:03:28.963Z,1012.44
2017-01-28T08:04:09.531Z,1012.45
2017-01-28T08:04:50.056Z,1012.38
2017-01-28T08:05:30.614Z,1012.45
2017-01-28T08:06:11.150Z,1012.45
2017-01-28T08:06:51.655Z,1012.46
2017-01-28T08:07:32.183Z,1012.47
2017-01-28T08:08:12.733Z,1012.48
2017-01-28T08:08:53.285Z,1012.46
2017-01-28T08:09:33.817Z,1012.45
2017-01-28T08:10:14.358Z,1012.45
2017-01-28T08:10:54.880Z,1012.51
2017-01-28T08:11:35.419Z,1012.47
2017-01-28T08:12:15.958Z,1012.53
2017-01-28T08:12:56.489Z,1012.51
2017-01-28T08:13:37.022Z,1012.5
2017-01-28T08:14:17.562Z,1012.54
2017-01-28T08:14:58.078Z,1012.48
2017-01-28T08:15:38.612Z,1012.44
2017-01-28T08:16:19.148Z,1012.47
2017-01-28T08:16:59.691Z,1012.47
2017-01-28T08:17:40.232Z,1012.43
2017-01-28T08:18:20.763Z,1012.46
2017-01-28T08:19:01.288Z,1012.5
2017-01-28T08:19:41.810Z,1012.47
2017-01-28T08:20:22.329Z,1012.5
2017-01-28T08:21:02.904Z,1012.5
2017-01-28T08:21:43.444Z,1012.49
2017-01-28T08:22:23.981Z,1012.48
2017-01-28T08:23:04.501Z,1012.46
2017-01-28T08:23:45.032Z,1012.47
2017-01-28T08:24:25.565Z,1012.44
2017-01-28T08:25:06.097Z,1012.42
2017-01-28T08:25:46.632Z,1012.44
2017-01-28T08:26:27.163Z,1012.5
2017-01-28T08:27:07.687Z,1012.5
2017-01-28T08:27:48.201Z,1012.49
2017-01-28T08:28:28.733Z,1012.54
2017-01-28T08:29:09.277Z,1012.56
2017-01-28T08:29:49.774Z,1012.53
2017-01-28T08:30:30.327Z,1012.55
2017-01-28T08:31:10.847Z,1012.51
2017-01-28T08:31:51.390Z,1012.54
2017-01-28T08:32:31.922Z,1012.58
2017-01-28T08:33:12.439Z,1012.57
2017-01-28T08:33:52.976Z,1012.58
2017-01-28T08:34:33.539Z,1012.62
2017-01-28T08:35:14.047Z,1012.6
2017-01-28T08:35:54.588Z,1012.62
2017-01-28T08:36:35.134Z,1012.66
2017-01-28T08:37:15.663Z,1012.65
2017-01-28T08:37:56.185Z,1012.64
2017-01-28T08:38:36.739Z,1012.68
2017-01-28T08:39:17.256Z,1012.73
2017-01-28T08:39:57.791Z,1012.73
2017-01-28T08:40:38.329Z,1012.74
2017-01-28T08:41:18.888Z,1012.78
2017-01-28T08:41:59.386Z,1012.77
2017-01-28T08:42:39.925Z,1012.8
2017-01-28T08:43:20.524Z,1012.8
2017-01-28T08:44:01.049Z,1012.77
2017-01-28T08:44:41.594Z,1012.71
2017-01-28T08:45:22.101Z,1012.7
2017-01-28T08:46:02.646Z,1012.7
2017-01-28T08:46:43.171Z,1012.65
2017-01-28T08:47:23.689Z,1012.71
2017-01-28T08:48:04.215Z,1012.69